sensor_id;sensor_type;location;lat;lon;timestamp;P1;durP1;ratioP1;P2;durP2;ratioP2
9473;SDS011;8865;47.636;7.692;2022-10-26T00:00:52;3.03;;;1.60;;
9473;SDS011;8865;47.636;7.692;2022-10-26T00:03:26;5.40;;;1.70;;
9473;SDS011;8865;47.636;7.692;2022-10-26T00:05:52;4.33;;;1.57;;
9473;SDS011;8865;47.636;7.692;2022-10-26T00:08:18;7.30;;;1.73;;
9473;SDS011;8865;47.636;7.692;2022-10-26T00:10:44;4.80;;;1.97;;
9473;SDS011;8865;47.636;7.692;2022-10-26T00:13:10;4.00;;;1.70;;
9473;SDS011;8865;47.636;7.692;2022-10-26T00:15:40;4.03;;;1.70;;
9473;SDS011;8865;47.636;7.692;2022-10-26T00:18:07;3.30;;;1.50;;
9473;SDS011;8865;47.636;7.692;2022-10-26T00:20:34;5.83;;;1.50;;
9473;SDS011;8865;47.636;7.692;2022-10-26T00:23:00;4.97;;;1.50;;
9473;SDS011;8865;47.636;7.692;2022-10-26T00:25:26;4.33;;;1.30;;
9473;SDS011;8865;47.636;7.692;2022-10-26T00:27:52;3.30;;;1.80;;
9473;SDS011;8865;47.636;7.692;2022-10-26T00:30:18;2.87;;;1.70;;
9473;SDS011;8865;47.636;7.692;2022-10-26T00:32:44;4.87;;;1.67;;
9473;SDS011;8865;47.636;7.692;2022-10-26T00:35:10;5.27;;;1.70;;
9473;SDS011;8865;47.636;7.692;2022-10-26T00:37:36;5.63;;;1.70;;
9473;SDS011;8865;47.636;7.692;2022-10-26T00:40:02;5.43;;;1.70;;
9473;SDS011;8865;47.636;7.692;2022-10-26T00:42:28;5.63;;;1.60;;
9473;SDS011;8865;47.636;7.692;2022-10-26T00:44:58;4.77;;;1.80;;
9473;SDS011;8865;47.636;7.692;2022-10-26T00:47:32;4.43;;;2.00;;
9473;SDS011;8865;47.636;7.692;2022-10-26T00:50:06;7.00;;;1.80;;
9473;SDS011;8865;47.636;7.692;2022-10-26T00:52:39;7.47;;;1.80;;
9473;SDS011;8865;47.636;7.692;2022-10-26T00:55:06;6.53;;;1.77;;
9473;SDS011;8865;47.636;7.692;2022-10-26T00:57:34;4.47;;;1.40;;
9473;SDS011;8865;47.636;7.692;2022-10-26T01:00:03;2.00;;;1.50;;
9473;SDS011;8865;47.636;7.692;2022-10-26T01:02:31;5.60;;;1.80;;
9473;SDS011;8865;47.636;7.692;2022-10-26T01:04:57;3.73;;;1.53;;
9473;SDS011;8865;47.636;7.692;2022-10-26T01:07:24;6.47;;;1.63;;
9473;SDS011;8865;47.636;7.692;2022-10-26T01:09:50;4.47;;;1.70;;
9473;SDS011;8865;47.636;7.692;2022-10-26T01:12:17;2.13;;;1.57;;
9473;SDS011;8865;47.636;7.692;2022-10-26T01:14:43;8.37;;;1.90;;
9473;SDS011;8865;47.636;7.692;2022-10-26T01:17:26;3.53;;;1.70;;
9473;SDS011;8865;47.636;7.692;2022-10-26T01:22:48;2.37;;;1.87;;
9473;SDS011;8865;47.636;7.692;2022-10-26T01:27:53;5.67;;;1.60;;
9473;SDS011;8865;47.636;7.692;2022-10-26T01:30:22;5.57;;;1.80;;
9473;SDS011;8865;47.636;7.692;2022-10-26T01:36:05;4.93;;;1.70;;
9473;SDS011;8865;47.636;7.692;2022-10-26T01:43:50;4.10;;;1.87;;
9473;SDS011;8865;47.636;7.692;2022-10-26T01:46:21;6.87;;;2.00;;
9473;SDS011;8865;47.636;7.692;2022-10-26T01:48:54;5.13;;;1.87;;
9473;SDS011;8865;47.636;7.692;2022-10-26T01:51:24;5.60;;;2.00;;
9473;SDS011;8865;47.636;7.692;2022-10-26T01:53:52;7.97;;;2.10;;
9473;SDS011;8865;47.636;7.692;2022-10-26T01:56:22;5.03;;;1.90;;
9473;SDS011;8865;47.636;7.692;2022-10-26T01:58:55;4.03;;;2.20;;
9473;SDS011;8865;47.636;7.692;2022-10-26T02:04:15;6.50;;;2.43;;
9473;SDS011;8865;47.636;7.692;2022-10-26T02:09:58;3.90;;;2.20;;
9473;SDS011;8865;47.636;7.692;2022-10-26T02:15:18;6.63;;;2.07;;
9473;SDS011;8865;47.636;7.692;2022-10-26T02:17:52;4.93;;;2.10;;
9473;SDS011;8865;47.636;7.692;2022-10-26T02:20:27;3.57;;;2.07;;
9473;SDS011;8865;47.636;7.692;2022-10-26T02:22:59;3.70;;;1.83;;
9473;SDS011;8865;47.636;7.692;2022-10-26T02:25:29;2.70;;;1.90;;
9473;SDS011;8865;47.636;7.692;2022-10-26T02:28:03;4.30;;;1.80;;
9473;SDS011;8865;47.636;7.692;2022-10-26T02:30:32;3.40;;;1.93;;
9473;SDS011;8865;47.636;7.692;2022-10-26T02:33:00;9.17;;;2.40;;
9473;SDS011;8865;47.636;7.692;2022-10-26T02:35:29;4.50;;;2.23;;
9473;SDS011;8865;47.636;7.692;2022-10-26T02:37:58;7.00;;;2.60;;
9473;SDS011;8865;47.636;7.692;2022-10-26T02:40:27;6.10;;;2.63;;
9473;SDS011;8865;47.636;7.692;2022-10-26T02:42:56;3.50;;;2.43;;
9473;SDS011;8865;47.636;7.692;2022-10-26T02:45:27;7.27;;;2.37;;
9473;SDS011;8865;47.636;7.692;2022-10-26T02:47:58;4.33;;;2.10;;
9473;SDS011;8865;47.636;7.692;2022-10-26T02:50:42;6.67;;;2.20;;
9473;SDS011;8865;47.636;7.692;2022-10-26T02:55:50;4.60;;;2.00;;
9473;SDS011;8865;47.636;7.692;2022-10-26T02:58:18;5.80;;;2.40;;
9473;SDS011;8865;47.636;7.692;2022-10-26T03:00:48;5.07;;;2.00;;
9473;SDS011;8865;47.636;7.692;2022-10-26T03:03:16;3.13;;;2.03;;
9473;SDS011;8865;47.636;7.692;2022-10-26T03:05:42;5.37;;;1.90;;
9473;SDS011;8865;47.636;7.692;2022-10-26T03:08:08;6.97;;;2.27;;
9473;SDS011;8865;47.636;7.692;2022-10-26T03:10:37;3.53;;;2.27;;
9473;SDS011;8865;47.636;7.692;2022-10-26T03:13:06;5.07;;;1.97;;
9473;SDS011;8865;47.636;7.692;2022-10-26T03:15:32;7.30;;;2.10;;
9473;SDS011;8865;47.636;7.692;2022-10-26T03:17:58;5.80;;;2.27;;
9473;SDS011;8865;47.636;7.692;2022-10-26T03:20:24;4.13;;;2.00;;
9473;SDS011;8865;47.636;7.692;2022-10-26T03:22:50;7.43;;;2.20;;
9473;SDS011;8865;47.636;7.692;2022-10-26T03:25:16;4.53;;;2.00;;
9473;SDS011;8865;47.636;7.692;2022-10-26T03:27:42;2.23;;;1.87;;
9473;SDS011;8865;47.636;7.692;2022-10-26T03:30:09;8.77;;;2.13;;
9473;SDS011;8865;47.636;7.692;2022-10-26T03:32:35;4.40;;;2.23;;
9473;SDS011;8865;47.636;7.692;2022-10-26T03:35:01;5.03;;;2.23;;
9473;SDS011;8865;47.636;7.692;2022-10-26T03:37:27;4.80;;;2.10;;
9473;SDS011;8865;47.636;7.692;2022-10-26T03:39:53;4.30;;;1.80;;
9473;SDS011;8865;47.636;7.692;2022-10-26T03:42:19;4.60;;;1.87;;
9473;SDS011;8865;47.636;7.692;2022-10-26T03:44:45;4.97;;;2.30;;
9473;SDS011;8865;47.636;7.692;2022-10-26T03:47:12;5.90;;;2.30;;
9473;SDS011;8865;47.636;7.692;2022-10-26T03:49:38;6.17;;;2.23;;
9473;SDS011;8865;47.636;7.692;2022-10-26T03:52:04;6.60;;;2.30;;
9473;SDS011;8865;47.636;7.692;2022-10-26T03:54:30;6.60;;;2.37;;
9473;SDS011;8865;47.636;7.692;2022-10-26T03:56:56;3.60;;;2.10;;
9473;SDS011;8865;47.636;7.692;2022-10-26T03:59:22;6.33;;;2.37;;
9473;SDS011;8865;47.636;7.692;2022-10-26T04:01:48;4.57;;;2.10;;
9473;SDS011;8865;47.636;7.692;2022-10-26T04:04:14;7.07;;;2.10;;
9473;SDS011;8865;47.636;7.692;2022-10-26T04:06:40;6.00;;;2.23;;
9473;SDS011;8865;47.636;7.692;2022-10-26T04:09:06;6.27;;;2.00;;
9473;SDS011;8865;47.636;7.692;2022-10-26T04:11:32;6.23;;;2.13;;
9473;SDS011;8865;47.636;7.692;2022-10-26T04:13:58;4.53;;;2.30;;
9473;SDS011;8865;47.636;7.692;2022-10-26T04:16:25;4.77;;;2.10;;
9473;SDS011;8865;47.636;7.692;2022-10-26T04:18:51;5.50;;;1.87;;
9473;SDS011;8865;47.636;7.692;2022-10-26T04:21:17;7.47;;;2.00;;
9473;SDS011;8865;47.636;7.692;2022-10-26T04:23:43;5.07;;;2.00;;
9473;SDS011;8865;47.636;7.692;2022-10-26T04:26:09;5.60;;;2.10;;
9473;SDS011;8865;47.636;7.692;2022-10-26T04:28:35;3.77;;;1.87;;
9473;SDS011;8865;47.636;7.692;2022-10-26T04:31:01;4.33;;;1.97;;
9473;SDS011;8865;47.636;7.692;2022-10-26T04:33:27;5.50;;;2.20;;
9473;SDS011;8865;47.636;7.692;2022-10-26T04:35:57;6.47;;;1.90;;
9473;SDS011;8865;47.636;7.692;2022-10-26T04:38:24;4.53;;;2.40;;
9473;SDS011;8865;47.636;7.692;2022-10-26T04:40:50;5.53;;;2.07;;
9473;SDS011;8865;47.636;7.692;2022-10-26T04:43:16;3.77;;;1.97;;
9473;SDS011;8865;47.636;7.692;2022-10-26T04:45:42;4.10;;;2.50;;
9473;SDS011;8865;47.636;7.692;2022-10-26T04:48:11;3.73;;;2.13;;
9473;SDS011;8865;47.636;7.692;2022-10-26T04:50:38;7.57;;;2.37;;
9473;SDS011;8865;47.636;7.692;2022-10-26T04:53:05;6.13;;;2.57;;
9473;SDS011;8865;47.636;7.692;2022-10-26T04:55:34;3.87;;;2.23;;
9473;SDS011;8865;47.636;7.692;2022-10-26T04:58:00;2.97;;;2.23;;
9473;SDS011;8865;47.636;7.692;2022-10-26T05:00:26;3.43;;;2.47;;
9473;SDS011;8865;47.636;7.692;2022-10-26T05:03:00;10.23;;;7.30;;
9473;SDS011;8865;47.636;7.692;2022-10-26T05:05:29;6.47;;;2.27;;
9473;SDS011;8865;47.636;7.692;2022-10-26T05:07:57;6.83;;;2.40;;
9473;SDS011;8865;47.636;7.692;2022-10-26T05:10:23;6.70;;;2.73;;
9473;SDS011;8865;47.636;7.692;2022-10-26T05:12:51;3.07;;;2.40;;
9473;SDS011;8865;47.636;7.692;2022-10-26T05:15:17;4.13;;;2.80;;
9473;SDS011;8865;47.636;7.692;2022-10-26T05:17:44;6.50;;;2.80;;
9473;SDS011;8865;47.636;7.692;2022-10-26T05:20:09;5.73;;;2.60;;
9473;SDS011;8865;47.636;7.692;2022-10-26T05:22:41;3.70;;;2.57;;
9473;SDS011;8865;47.636;7.692;2022-10-26T05:25:07;5.83;;;3.10;;
9473;SDS011;8865;47.636;7.692;2022-10-26T05:27:33;5.70;;;2.70;;
9473;SDS011;8865;47.636;7.692;2022-10-26T05:29:59;4.27;;;2.77;;
9473;SDS011;8865;47.636;7.692;2022-10-26T05:32:25;7.00;;;3.07;;
9473;SDS011;8865;47.636;7.692;2022-10-26T05:34:51;7.00;;;3.20;;
9473;SDS011;8865;47.636;7.692;2022-10-26T05:37:17;4.67;;;3.53;;
9473;SDS011;8865;47.636;7.692;2022-10-26T05:39:43;9.97;;;4.30;;
9473;SDS011;8865;47.636;7.692;2022-10-26T05:42:09;5.97;;;3.37;;
9473;SDS011;8865;47.636;7.692;2022-10-26T05:44:35;9.27;;;2.80;;
9473;SDS011;8865;47.636;7.692;2022-10-26T05:47:01;3.87;;;2.90;;
9473;SDS011;8865;47.636;7.692;2022-10-26T05:49:27;4.93;;;2.93;;
9473;SDS011;8865;47.636;7.692;2022-10-26T05:51:52;5.80;;;3.10;;
9473;SDS011;8865;47.636;7.692;2022-10-26T05:54:18;6.07;;;3.10;;
9473;SDS011;8865;47.636;7.692;2022-10-26T05:56:45;3.77;;;3.03;;
9473;SDS011;8865;47.636;7.692;2022-10-26T05:59:12;4.17;;;3.03;;
9473;SDS011;8865;47.636;7.692;2022-10-26T06:01:46;4.37;;;3.23;;
9473;SDS011;8865;47.636;7.692;2022-10-26T06:04:24;6.07;;;3.57;;
9473;SDS011;8865;47.636;7.692;2022-10-26T06:07:10;7.40;;;3.23;;
9473;SDS011;8865;47.636;7.692;2022-10-26T06:09:38;6.93;;;3.00;;
9473;SDS011;8865;47.636;7.692;2022-10-26T06:12:05;7.33;;;2.60;;
9473;SDS011;8865;47.636;7.692;2022-10-26T06:14:33;4.60;;;2.83;;
9473;SDS011;8865;47.636;7.692;2022-10-26T06:17:11;4.37;;;2.77;;
9473;SDS011;8865;47.636;7.692;2022-10-26T06:22:38;6.13;;;2.80;;
9473;SDS011;8865;47.636;7.692;2022-10-26T06:27:59;4.90;;;2.80;;
9473;SDS011;8865;47.636;7.692;2022-10-26T06:30:29;6.37;;;2.63;;
9473;SDS011;8865;47.636;7.692;2022-10-26T06:32:55;5.13;;;2.67;;
9473;SDS011;8865;47.636;7.692;2022-10-26T06:38:07;3.20;;;2.70;;
9473;SDS011;8865;47.636;7.692;2022-10-26T06:40:36;4.63;;;2.90;;
9473;SDS011;8865;47.636;7.692;2022-10-26T06:43:10;4.57;;;3.10;;
9473;SDS011;8865;47.636;7.692;2022-10-26T06:45:41;6.20;;;3.10;;
9473;SDS011;8865;47.636;7.692;2022-10-26T06:48:16;4.07;;;3.10;;
9473;SDS011;8865;47.636;7.692;2022-10-26T06:50:50;6.67;;;3.10;;
9473;SDS011;8865;47.636;7.692;2022-10-26T06:53:26;5.40;;;2.73;;
9473;SDS011;8865;47.636;7.692;2022-10-26T06:55:56;3.80;;;2.77;;
9473;SDS011;8865;47.636;7.692;2022-10-26T06:58:24;3.70;;;2.87;;
9473;SDS011;8865;47.636;7.692;2022-10-26T07:00:54;10.77;;;3.30;;
9473;SDS011;8865;47.636;7.692;2022-10-26T07:03:21;8.07;;;3.23;;
9473;SDS011;8865;47.636;7.692;2022-10-26T07:05:47;7.60;;;3.13;;
9473;SDS011;8865;47.636;7.692;2022-10-26T07:08:14;12.43;;;3.30;;
9473;SDS011;8865;47.636;7.692;2022-10-26T07:10:40;6.03;;;3.00;;
9473;SDS011;8865;47.636;7.692;2022-10-26T07:13:07;9.97;;;3.33;;
9473;SDS011;8865;47.636;7.692;2022-10-26T07:15:34;3.73;;;2.97;;
9473;SDS011;8865;47.636;7.692;2022-10-26T07:18:04;6.07;;;3.13;;
9473;SDS011;8865;47.636;7.692;2022-10-26T07:20:38;7.77;;;3.57;;
9473;SDS011;8865;47.636;7.692;2022-10-26T07:23:06;7.00;;;3.27;;
9473;SDS011;8865;47.636;7.692;2022-10-26T07:25:33;5.13;;;3.20;;
9473;SDS011;8865;47.636;7.692;2022-10-26T07:27:59;4.83;;;3.50;;
9473;SDS011;8865;47.636;7.692;2022-10-26T07:30:26;6.57;;;3.47;;
9473;SDS011;8865;47.636;7.692;2022-10-26T07:33:00;6.43;;;3.30;;
9473;SDS011;8865;47.636;7.692;2022-10-26T07:35:31;7.30;;;3.00;;
9473;SDS011;8865;47.636;7.692;2022-10-26T07:37:58;7.70;;;3.33;;
9473;SDS011;8865;47.636;7.692;2022-10-26T07:40:24;6.03;;;3.33;;
9473;SDS011;8865;47.636;7.692;2022-10-26T07:42:51;4.73;;;2.83;;
9473;SDS011;8865;47.636;7.692;2022-10-26T07:45:20;7.20;;;3.63;;
9473;SDS011;8865;47.636;7.692;2022-10-26T07:47:46;4.50;;;3.40;;
9473;SDS011;8865;47.636;7.692;2022-10-26T07:50:13;5.40;;;3.07;;
9473;SDS011;8865;47.636;7.692;2022-10-26T07:52:39;3.73;;;2.63;;
9473;SDS011;8865;47.636;7.692;2022-10-26T07:55:09;7.87;;;3.37;;
9473;SDS011;8865;47.636;7.692;2022-10-26T07:57:37;7.53;;;3.20;;
9473;SDS011;8865;47.636;7.692;2022-10-26T08:00:03;5.10;;;3.00;;
9473;SDS011;8865;47.636;7.692;2022-10-26T08:02:31;6.13;;;2.93;;
9473;SDS011;8865;47.636;7.692;2022-10-26T08:04:59;4.30;;;2.80;;
9473;SDS011;8865;47.636;7.692;2022-10-26T08:07:25;4.60;;;2.93;;
9473;SDS011;8865;47.636;7.692;2022-10-26T08:09:51;6.80;;;3.63;;
9473;SDS011;8865;47.636;7.692;2022-10-26T08:12:17;5.27;;;2.97;;
9473;SDS011;8865;47.636;7.692;2022-10-26T08:14:44;5.70;;;3.10;;
9473;SDS011;8865;47.636;7.692;2022-10-26T08:17:10;8.93;;;3.50;;
9473;SDS011;8865;47.636;7.692;2022-10-26T08:19:37;7.03;;;3.40;;
9473;SDS011;8865;47.636;7.692;2022-10-26T08:22:03;6.67;;;3.10;;
9473;SDS011;8865;47.636;7.692;2022-10-26T08:24:29;7.10;;;2.77;;
9473;SDS011;8865;47.636;7.692;2022-10-26T08:26:55;7.87;;;2.70;;
9473;SDS011;8865;47.636;7.692;2022-10-26T08:29:21;3.20;;;2.30;;
9473;SDS011;8865;47.636;7.692;2022-10-26T08:31:47;3.67;;;2.70;;
9473;SDS011;8865;47.636;7.692;2022-10-26T08:34:13;3.87;;;2.20;;
9473;SDS011;8865;47.636;7.692;2022-10-26T08:36:39;5.97;;;2.53;;
9473;SDS011;8865;47.636;7.692;2022-10-26T08:39:05;3.93;;;2.20;;
9473;SDS011;8865;47.636;7.692;2022-10-26T08:41:35;3.93;;;2.10;;
9473;SDS011;8865;47.636;7.692;2022-10-26T08:44:17;6.27;;;2.20;;
9473;SDS011;8865;47.636;7.692;2022-10-26T08:46:57;3.20;;;2.00;;
9473;SDS011;8865;47.636;7.692;2022-10-26T08:49:30;2.40;;;1.80;;
9473;SDS011;8865;47.636;7.692;2022-10-26T08:52:03;5.10;;;2.20;;
9473;SDS011;8865;47.636;7.692;2022-10-26T08:54:36;4.40;;;2.03;;
9473;SDS011;8865;47.636;7.692;2022-10-26T08:57:56;3.08;;;1.80;;
9473;SDS011;8865;47.636;7.692;2022-10-26T09:00:05;3.90;;;2.15;;
9473;SDS011;8865;47.636;7.692;2022-10-26T09:02:35;5.55;;;2.10;;
9473;SDS011;8865;47.636;7.692;2022-10-26T09:05:01;3.97;;;1.75;;
9473;SDS011;8865;47.636;7.692;2022-10-26T09:24:01;4.22;;;1.90;;
9473;SDS011;8865;47.636;7.692;2022-10-26T09:26:36;5.45;;;1.80;;
9473;SDS011;8865;47.636;7.692;2022-10-26T09:29:05;3.22;;;2.08;;
9473;SDS011;8865;47.636;7.692;2022-10-26T09:31:42;4.78;;;2.13;;
9473;SDS011;8865;47.636;7.692;2022-10-26T09:37:23;5.15;;;1.90;;
9473;SDS011;8865;47.636;7.692;2022-10-26T09:45:52;4.63;;;2.10;;
9473;SDS011;8865;47.636;7.692;2022-10-26T09:50:51;4.22;;;1.95;;
9473;SDS011;8865;47.636;7.692;2022-10-26T09:53:17;4.68;;;1.83;;
9473;SDS011;8865;47.636;7.692;2022-10-26T09:55:47;4.00;;;1.83;;
9473;SDS011;8865;47.636;7.692;2022-10-26T09:58:16;3.78;;;1.75;;
9473;SDS011;8865;47.636;7.692;2022-10-26T10:00:48;8.15;;;2.03;;
9473;SDS011;8865;47.636;7.692;2022-10-26T10:03:20;4.10;;;1.70;;
9473;SDS011;8865;47.636;7.692;2022-10-26T10:05:50;4.93;;;2.08;;
9473;SDS011;8865;47.636;7.692;2022-10-26T10:08:17;4.05;;;1.63;;
9473;SDS011;8865;47.636;7.692;2022-10-26T10:13:35;4.90;;;1.90;;
9473;SDS011;8865;47.636;7.692;2022-10-26T10:18:29;4.63;;;1.85;;
9473;SDS011;8865;47.636;7.692;2022-10-26T10:20:56;5.35;;;2.05;;
9473;SDS011;8865;47.636;7.692;2022-10-26T10:23:24;6.43;;;2.22;;
9473;SDS011;8865;47.636;7.692;2022-10-26T10:28:26;5.25;;;1.92;;
9473;SDS011;8865;47.636;7.692;2022-10-26T10:30:57;5.32;;;1.75;;
9473;SDS011;8865;47.636;7.692;2022-10-26T10:33:35;3.78;;;1.90;;
9473;SDS011;8865;47.636;7.692;2022-10-26T10:36:04;4.80;;;1.90;;
9473;SDS011;8865;47.636;7.692;2022-10-26T10:38:39;8.07;;;2.13;;
9473;SDS011;8865;47.636;7.692;2022-10-26T10:41:15;7.10;;;2.28;;
9473;SDS011;8865;47.636;7.692;2022-10-26T10:43:57;6.90;;;2.38;;
9473;SDS011;8865;47.636;7.692;2022-10-26T10:46:25;6.82;;;2.03;;
9473;SDS011;8865;47.636;7.692;2022-10-26T10:48:53;5.35;;;2.55;;
9473;SDS011;8865;47.636;7.692;2022-10-26T10:51:26;5.75;;;2.50;;
9473;SDS011;8865;47.636;7.692;2022-10-26T10:53:55;9.55;;;2.78;;
9473;SDS011;8865;47.636;7.692;2022-10-26T11:04:49;10.82;;;2.78;;
9473;SDS011;8865;47.636;7.692;2022-10-26T11:07:18;8.80;;;2.95;;
9473;SDS011;8865;47.636;7.692;2022-10-26T11:09:46;9.82;;;2.55;;
9473;SDS011;8865;47.636;7.692;2022-10-26T11:12:15;9.48;;;2.63;;
9473;SDS011;8865;47.636;7.692;2022-10-26T11:14:47;9.05;;;3.00;;
9473;SDS011;8865;47.636;7.692;2022-10-26T11:17:23;10.65;;;2.97;;
9473;SDS011;8865;47.636;7.692;2022-10-26T11:19:53;9.52;;;2.80;;
9473;SDS011;8865;47.636;7.692;2022-10-26T11:22:52;11.32;;;2.97;;
9473;SDS011;8865;47.636;7.692;2022-10-26T11:25:35;8.50;;;2.90;;
9473;SDS011;8865;47.636;7.692;2022-10-26T11:28:22;9.82;;;3.00;;
9473;SDS011;8865;47.636;7.692;2022-10-26T11:31:05;10.43;;;3.00;;
9473;SDS011;8865;47.636;7.692;2022-10-26T11:36:33;10.18;;;3.50;;
9473;SDS011;8865;47.636;7.692;2022-10-26T11:39:09;7.10;;;3.10;;
9473;SDS011;8865;47.636;7.692;2022-10-26T11:42:06;9.98;;;3.13;;
9473;SDS011;8865;47.636;7.692;2022-10-26T11:44:58;8.40;;;2.75;;
9473;SDS011;8865;47.636;7.692;2022-10-26T11:47:55;10.27;;;3.33;;
9473;SDS011;8865;47.636;7.692;2022-10-26T11:50:47;10.95;;;3.40;;
9473;SDS011;8865;47.636;7.692;2022-10-26T11:53:18;9.45;;;3.10;;
9473;SDS011;8865;47.636;7.692;2022-10-26T11:55:50;9.52;;;3.30;;
9473;SDS011;8865;47.636;7.692;2022-10-26T11:58:20;8.20;;;3.03;;
9473;SDS011;8865;47.636;7.692;2022-10-26T12:00:50;6.05;;;2.80;;
9473;SDS011;8865;47.636;7.692;2022-10-26T12:03:40;10.45;;;3.15;;
9473;SDS011;8865;47.636;7.692;2022-10-26T12:06:12;7.72;;;2.92;;
9473;SDS011;8865;47.636;7.692;2022-10-26T12:08:42;8.73;;;2.70;;
9473;SDS011;8865;47.636;7.692;2022-10-26T12:11:25;8.73;;;2.75;;
9473;SDS011;8865;47.636;7.692;2022-10-26T12:19:42;10.88;;;3.20;;
9473;SDS011;8865;47.636;7.692;2022-10-26T12:22:18;14.15;;;2.72;;
9473;SDS011;8865;47.636;7.692;2022-10-26T12:24:46;8.02;;;3.05;;
9473;SDS011;8865;47.636;7.692;2022-10-26T12:35:30;10.82;;;3.38;;
9473;SDS011;8865;47.636;7.692;2022-10-26T12:38:01;10.55;;;2.85;;
9473;SDS011;8865;47.636;7.692;2022-10-26T12:40:46;9.63;;;2.70;;
9473;SDS011;8865;47.636;7.692;2022-10-26T12:45:39;10.98;;;3.42;;
9473;SDS011;8865;47.636;7.692;2022-10-26T12:48:23;14.15;;;3.03;;
9473;SDS011;8865;47.636;7.692;2022-10-26T12:59:18;9.57;;;3.00;;
9473;SDS011;8865;47.636;7.692;2022-10-26T13:01:52;10.50;;;2.83;;
9473;SDS011;8865;47.636;7.692;2022-10-26T13:04:55;10.95;;;3.22;;
9473;SDS011;8865;47.636;7.692;2022-10-26T13:07:36;12.38;;;3.08;;
9473;SDS011;8865;47.636;7.692;2022-10-26T13:18:06;13.73;;;3.45;;
9473;SDS011;8865;47.636;7.692;2022-10-26T13:20:33;9.90;;;3.40;;
9473;SDS011;8865;47.636;7.692;2022-10-26T13:23:02;11.93;;;3.33;;
9473;SDS011;8865;47.636;7.692;2022-10-26T13:25:39;9.60;;;3.08;;
9473;SDS011;8865;47.636;7.692;2022-10-26T13:28:27;11.23;;;3.47;;
9473;SDS011;8865;47.636;7.692;2022-10-26T13:30:57;9.70;;;3.03;;
9473;SDS011;8865;47.636;7.692;2022-10-26T13:33:28;9.45;;;3.00;;
9473;SDS011;8865;47.636;7.692;2022-10-26T13:36:21;10.18;;;3.40;;
9473;SDS011;8865;47.636;7.692;2022-10-26T13:38:58;10.43;;;3.15;;
9473;SDS011;8865;47.636;7.692;2022-10-26T13:41:33;10.40;;;2.88;;
9473;SDS011;8865;47.636;7.692;2022-10-26T13:44:03;7.05;;;3.00;;
9473;SDS011;8865;47.636;7.692;2022-10-26T13:46:33;11.45;;;2.85;;
9473;SDS011;8865;47.636;7.692;2022-10-26T13:49:07;9.13;;;3.03;;
9473;SDS011;8865;47.636;7.692;2022-10-26T13:51:43;9.30;;;2.78;;
9473;SDS011;8865;47.636;7.692;2022-10-26T13:54:18;11.35;;;3.10;;
9473;SDS011;8865;47.636;7.692;2022-10-26T13:56:54;12.68;;;3.33;;
9473;SDS011;8865;47.636;7.692;2022-10-26T13:59:42;12.60;;;2.83;;
9473;SDS011;8865;47.636;7.692;2022-10-26T14:02:22;7.38;;;2.42;;
9473;SDS011;8865;47.636;7.692;2022-10-26T14:04:59;9.95;;;3.13;;
9473;SDS011;8865;47.636;7.692;2022-10-26T14:08:00;12.60;;;2.70;;
9473;SDS011;8865;47.636;7.692;2022-10-26T14:10:39;12.02;;;3.30;;
9473;SDS011;8865;47.636;7.692;2022-10-26T14:13:07;8.48;;;2.95;;
9473;SDS011;8865;47.636;7.692;2022-10-26T14:15:35;10.25;;;3.20;;
9473;SDS011;8865;47.636;7.692;2022-10-26T14:18:02;12.45;;;3.42;;
9473;SDS011;8865;47.636;7.692;2022-10-26T14:20:29;8.70;;;3.10;;
9473;SDS011;8865;47.636;7.692;2022-10-26T14:22:56;11.18;;;2.58;;
9473;SDS011;8865;47.636;7.692;2022-10-26T14:25:24;8.45;;;2.75;;
9473;SDS011;8865;47.636;7.692;2022-10-26T14:27:52;7.07;;;2.40;;
9473;SDS011;8865;47.636;7.692;2022-10-26T14:30:24;8.65;;;2.70;;
9473;SDS011;8865;47.636;7.692;2022-10-26T14:32:53;8.82;;;2.78;;
9473;SDS011;8865;47.636;7.692;2022-10-26T14:35:21;12.70;;;3.03;;
9473;SDS011;8865;47.636;7.692;2022-10-26T14:38:01;9.43;;;3.00;;
9473;SDS011;8865;47.636;7.692;2022-10-26T14:40:30;10.25;;;2.72;;
9473;SDS011;8865;47.636;7.692;2022-10-26T14:43:00;9.07;;;2.38;;
9473;SDS011;8865;47.636;7.692;2022-10-26T14:45:33;8.63;;;2.80;;
9473;SDS011;8865;47.636;7.692;2022-10-26T14:48:01;11.27;;;2.65;;
9473;SDS011;8865;47.636;7.692;2022-10-26T14:50:28;6.63;;;2.60;;
9473;SDS011;8865;47.636;7.692;2022-10-26T14:53:15;8.57;;;2.83;;
9473;SDS011;8865;47.636;7.692;2022-10-26T14:55:50;13.67;;;3.13;;
9473;SDS011;8865;47.636;7.692;2022-10-26T14:58:19;11.00;;;2.70;;
9473;SDS011;8865;47.636;7.692;2022-10-26T15:01:12;5.63;;;2.97;;
9473;SDS011;8865;47.636;7.692;2022-10-26T15:03:47;7.80;;;3.13;;
9473;SDS011;8865;47.636;7.692;2022-10-26T15:06:39;9.80;;;2.70;;
9473;SDS011;8865;47.636;7.692;2022-10-26T15:09:27;6.93;;;2.67;;
9473;SDS011;8865;47.636;7.692;2022-10-26T15:12:02;5.53;;;2.33;;
9473;SDS011;8865;47.636;7.692;2022-10-26T15:14:29;6.43;;;2.60;;
9473;SDS011;8865;47.636;7.692;2022-10-26T15:16:56;10.47;;;2.90;;
9473;SDS011;8865;47.636;7.692;2022-10-26T15:19:23;9.60;;;2.60;;
9473;SDS011;8865;47.636;7.692;2022-10-26T15:21:51;7.53;;;2.73;;
9473;SDS011;8865;47.636;7.692;2022-10-26T15:26:52;9.90;;;2.80;;
9473;SDS011;8865;47.636;7.692;2022-10-26T15:37:47;6.63;;;2.90;;
9473;SDS011;8865;47.636;7.692;2022-10-26T15:40:14;8.20;;;2.73;;
9473;SDS011;8865;47.636;7.692;2022-10-26T15:42:41;9.13;;;3.00;;
9473;SDS011;8865;47.636;7.692;2022-10-26T15:45:20;9.23;;;2.90;;
9473;SDS011;8865;47.636;7.692;2022-10-26T15:47:51;13.40;;;3.33;;
9473;SDS011;8865;47.636;7.692;2022-10-26T16:01:23;9.47;;;3.23;;
9473;SDS011;8865;47.636;7.692;2022-10-26T16:18:21;9.40;;;3.60;;
9473;SDS011;8865;47.636;7.692;2022-10-26T16:28:20;14.77;;;3.70;;
9473;SDS011;8865;47.636;7.692;2022-10-26T16:30:57;12.37;;;3.40;;
9473;SDS011;8865;47.636;7.692;2022-10-26T16:33:34;10.80;;;3.63;;
9473;SDS011;8865;47.636;7.692;2022-10-26T16:36:49;13.90;;;8.50;;
9473;SDS011;8865;47.636;7.692;2022-10-26T16:55:15;9.20;;;3.87;;
9473;SDS011;8865;47.636;7.692;2022-10-26T16:57:49;9.13;;;4.93;;
9473;SDS011;8865;47.636;7.692;2022-10-26T17:00:15;17.30;;;5.30;;
9473;SDS011;8865;47.636;7.692;2022-10-26T17:02:41;11.13;;;5.43;;
9473;SDS011;8865;47.636;7.692;2022-10-26T17:05:07;9.93;;;3.77;;
9473;SDS011;8865;47.636;7.692;2022-10-26T17:07:34;8.30;;;3.93;;
9473;SDS011;8865;47.636;7.692;2022-10-26T17:10:00;9.63;;;3.47;;
9473;SDS011;8865;47.636;7.692;2022-10-26T17:12:29;9.40;;;3.40;;
9473;SDS011;8865;47.636;7.692;2022-10-26T17:18:37;10.93;;;3.77;;
9473;SDS011;8865;47.636;7.692;2022-10-26T17:21:43;11.30;;;3.80;;
9473;SDS011;8865;47.636;7.692;2022-10-26T17:24:32;10.70;;;3.47;;
9473;SDS011;8865;47.636;7.692;2022-10-26T17:27:22;9.77;;;3.40;;
9473;SDS011;8865;47.636;7.692;2022-10-26T17:30:22;10.97;;;3.57;;
9473;SDS011;8865;47.636;7.692;2022-10-26T17:33:25;5.30;;;3.10;;
9473;SDS011;8865;47.636;7.692;2022-10-26T17:39:08;12.93;;;5.87;;
9473;SDS011;8865;47.636;7.692;2022-10-26T17:41:47;9.80;;;4.90;;
9473;SDS011;8865;47.636;7.692;2022-10-26T17:44:25;13.77;;;4.10;;
9473;SDS011;8865;47.636;7.692;2022-10-26T17:46:54;9.10;;;4.20;;
9473;SDS011;8865;47.636;7.692;2022-10-26T17:49:23;8.77;;;4.20;;
9473;SDS011;8865;47.636;7.692;2022-10-26T17:51:51;10.90;;;4.20;;
9473;SDS011;8865;47.636;7.692;2022-10-26T17:54:20;9.37;;;4.20;;
9473;SDS011;8865;47.636;7.692;2022-10-26T17:56:58;11.43;;;4.60;;
9473;SDS011;8865;47.636;7.692;2022-10-26T17:59:36;13.53;;;4.20;;
9473;SDS011;8865;47.636;7.692;2022-10-26T18:02:17;7.07;;;3.70;;
9473;SDS011;8865;47.636;7.692;2022-10-26T18:04:46;10.37;;;4.10;;
9473;SDS011;8865;47.636;7.692;2022-10-26T18:07:57;11.03;;;4.10;;
9473;SDS011;8865;47.636;7.692;2022-10-26T18:10:29;8.60;;;3.90;;
9473;SDS011;8865;47.636;7.692;2022-10-26T18:13:19;10.50;;;3.87;;
9473;SDS011;8865;47.636;7.692;2022-10-26T18:19:47;10.33;;;3.70;;
9473;SDS011;8865;47.636;7.692;2022-10-26T18:26:43;7.57;;;3.63;;
9473;SDS011;8865;47.636;7.692;2022-10-26T18:29:18;11.43;;;4.10;;
9473;SDS011;8865;47.636;7.692;2022-10-26T18:32:06;6.60;;;3.43;;
9473;SDS011;8865;47.636;7.692;2022-10-26T18:34:32;9.20;;;3.70;;
9473;SDS011;8865;47.636;7.692;2022-10-26T18:36:58;8.27;;;3.67;;
9473;SDS011;8865;47.636;7.692;2022-10-26T18:39:24;11.83;;;4.10;;
9473;SDS011;8865;47.636;7.692;2022-10-26T18:41:50;8.67;;;3.60;;
9473;SDS011;8865;47.636;7.692;2022-10-26T18:44:16;7.60;;;3.70;;
9473;SDS011;8865;47.636;7.692;2022-10-26T18:46:43;9.57;;;3.67;;